createdAt,value
2022-09-25T00:02:08.969Z,30.20
2022-09-25T00:04:39.639Z,39.80
2022-09-25T00:07:08.399Z,34.75
2022-09-25T00:09:36.729Z,32.72
2022-09-25T00:12:05.878Z,29.58
2022-09-25T00:14:34.746Z,33.25
2022-09-25T00:17:03.758Z,31.42
2022-09-25T00:19:50.099Z,24.75
2022-09-25T00:22:21.356Z,28.75
2022-09-25T00:24:50.825Z,25.83
2022-09-25T00:27:19.311Z,40.35
2022-09-25T00:29:48.903Z,38.47
2022-09-25T00:32:17.264Z,46.92
2022-09-25T00:34:47.162Z,33.53
2022-09-25T00:37:15.466Z,35.80
2022-09-25T00:39:46.036Z,28.30
2022-09-25T00:42:14.532Z,32.13
2022-09-25T00:44:56.954Z,33.20
2022-09-25T00:47:42.890Z,39.72
2022-09-25T00:50:32.816Z,37.30
2022-09-25T00:53:23.042Z,34.22
2022-09-25T00:55:55.497Z,36.35
2022-09-25T00:58:26.954Z,41.08
2022-09-25T01:00:56.064Z,38.08
2022-09-25T01:03:25.992Z,40.67
2022-09-25T01:05:56.579Z,34.60
2022-09-25T01:08:28.268Z,38.83
2022-09-25T01:10:59.366Z,39.83
2022-09-25T01:13:29.799Z,41.30
2022-09-25T01:16:06.138Z,33.03
2022-09-25T01:18:45.205Z,30.75
2022-09-25T01:21:23.250Z,41.28
2022-09-25T01:24:12.445Z,43.35
2022-09-25T01:27:21.385Z,36.08
2022-09-25T01:29:57.565Z,49.13
2022-09-25T01:32:34.595Z,34.10
2022-09-25T01:35:09.715Z,40.17
2022-09-25T01:37:44.637Z,40.42
2022-09-25T01:40:18.817Z,45.10
2022-09-25T01:42:53.034Z,36.95
2022-09-25T01:45:28.922Z,49.65
2022-09-25T01:48:01.415Z,45.67
2022-09-25T01:50:35.301Z,31.55
2022-09-25T01:53:09.311Z,31.02
2022-09-25T01:55:45.070Z,29.85
2022-09-25T01:58:18.207Z,26.00
2022-09-25T02:00:54.022Z,24.45
2022-09-25T02:03:27.620Z,29.92
2022-09-25T02:06:00.857Z,27.70
2022-09-25T02:08:32.697Z,29.23
2022-09-25T02:11:04.020Z,29.98
2022-09-25T02:13:40.711Z,31.95
2022-09-25T02:16:13.455Z,27.95
2022-09-25T02:19:00.228Z,33.17
2022-09-25T02:21:38.343Z,32.85
2022-09-25T02:24:14.422Z,30.75
2022-09-25T02:26:43.152Z,33.90
2022-09-25T02:29:13.239Z,52.20
2022-09-25T02:31:46.102Z,38.40
2022-09-25T02:34:15.543Z,41.35
2022-09-25T02:36:44.925Z,44.42
2022-09-25T02:39:18.511Z,39.70
2022-09-25T02:42:10.654Z,35.33
2022-09-25T02:44:51.267Z,34.05
2022-09-25T02:47:32.739Z,34.20
2022-09-25T02:50:10.370Z,34.15
2022-09-25T02:52:48.571Z,24.45
2022-09-25T02:55:28.272Z,41.78
2022-09-25T02:58:01.272Z,43.45
2022-09-25T03:00:30.999Z,39.83
2022-09-25T03:03:03.961Z,48.35
2022-09-25T03:05:33.052Z,41.08
2022-09-25T03:08:19.273Z,39.05
2022-09-25T03:10:48.878Z,41.90
2022-09-25T03:13:19.736Z,36.97
2022-09-25T03:15:52.794Z,38.08
2022-09-25T03:18:22.616Z,37.75
2022-09-25T03:20:51.722Z,35.80
2022-09-25T03:23:20.551Z,32.83
2022-09-25T03:25:50.494Z,35.67
2022-09-25T03:28:19.575Z,34.50
2022-09-25T03:31:01.302Z,37.42
2022-09-25T03:33:36.477Z,38.70
2022-09-25T03:36:09.978Z,37.67
2022-09-25T03:38:38.781Z,36.58
2022-09-25T03:41:10.137Z,38.78
2022-09-25T03:43:40.294Z,39.10
2022-09-25T03:46:12.181Z,39.90
2022-09-25T03:48:43.311Z,40.58
2022-09-25T03:51:12.258Z,40.22
2022-09-25T03:53:42.023Z,40.72
2022-09-25T03:56:12.901Z,41.90
2022-09-25T03:58:42.422Z,43.78
2022-09-25T04:01:11.764Z,37.40
2022-09-25T04:03:47.756Z,40.03
2022-09-25T04:06:18.410Z,39.38
2022-09-25T04:08:48.930Z,40.13
2022-09-25T04:11:19.218Z,38.83
2022-09-25T04:13:48.630Z,36.53
2022-09-25T04:16:18.318Z,40.55
2022-09-25T04:18:48.109Z,38.60
2022-09-25T04:21:17.648Z,39.17
2022-09-25T04:24:06.584Z,39.83
2022-09-25T04:26:36.192Z,39.85
2022-09-25T04:29:04.789Z,38.17
2022-09-25T04:31:34.158Z,42.10
2022-09-25T04:34:03.001Z,40.40
2022-09-25T04:36:32.005Z,40.70
2022-09-25T04:39:00.279Z,41.85
2022-09-25T04:41:29.438Z,36.97
2022-09-25T04:43:57.755Z,41.42
2022-09-25T04:46:27.005Z,34.45
2022-09-25T04:48:55.358Z,32.00
2022-09-25T04:51:25.924Z,34.22
2022-09-25T04:53:54.660Z,38.92
2022-09-25T04:56:23.174Z,38.30
2022-09-25T04:58:51.896Z,41.70
2022-09-25T05:01:21.683Z,39.97
2022-09-25T05:03:54.135Z,41.15
2022-09-25T05:06:22.982Z,39.53
2022-09-25T05:08:53.515Z,41.35
2022-09-25T05:11:22.970Z,36.65
2022-09-25T05:13:51.819Z,38.40
2022-09-25T05:16:21.592Z,48.58
2022-09-25T05:18:50.038Z,38.00
2022-09-25T05:21:18.879Z,37.45
2022-09-25T05:23:47.358Z,41.70
2022-09-25T05:26:17.370Z,33.97
2022-09-25T05:28:50.690Z,30.92
2022-09-25T05:31:19.369Z,46.97
2022-09-25T05:33:48.746Z,39.60
2022-09-25T05:36:18.800Z,38.03
2022-09-25T05:38:48.663Z,42.40
2022-09-25T05:41:19.160Z,43.08
2022-09-25T05:43:48.096Z,37.22
2022-09-25T05:46:16.991Z,38.80
2022-09-25T05:48:46.407Z,36.75
2022-09-25T05:51:15.552Z,37.45
2022-09-25T05:53:44.464Z,35.47
2022-09-25T05:56:12.755Z,37.60
2022-09-25T05:58:43.126Z,37.83
2022-09-25T06:01:11.773Z,36.45
2022-09-25T06:03:40.085Z,39.50
2022-09-25T06:06:09.204Z,34.72
2022-09-25T06:08:37.490Z,36.50
2022-09-25T06:11:08.213Z,35.83
2022-09-25T06:13:37.014Z,39.88
2022-09-25T06:16:15.485Z,37.38
2022-09-25T06:18:44.345Z,37.10
2022-09-25T06:21:13.652Z,34.15
2022-09-25T06:23:44.272Z,31.55
2022-09-25T06:26:12.612Z,36.10
2022-09-25T06:28:41.302Z,34.40
2022-09-25T06:31:10.968Z,33.65
2022-09-25T06:33:39.809Z,32.95
2022-09-25T06:36:08.190Z,33.53
2022-09-25T06:38:37.246Z,36.42
2022-09-25T06:41:06.607Z,33.47
2022-09-25T06:43:35.758Z,33.08
2022-09-25T06:46:04.677Z,43.80
2022-09-25T06:48:34.348Z,44.33
2022-09-25T06:51:03.305Z,40.00
2022-09-25T06:53:31.664Z,41.88
2022-09-25T06:56:01.427Z,44.40
2022-09-25T06:58:31.877Z,46.65
2022-09-25T07:01:00.181Z,43.35
2022-09-25T07:03:46.836Z,41.92
2022-09-25T07:06:18.823Z,45.97
2022-09-25T07:08:49.431Z,42.08
2022-09-25T07:11:20.337Z,36.75
2022-09-25T07:13:55.574Z,43.95
2022-09-25T07:16:25.604Z,38.17
2022-09-25T07:18:55.870Z,43.40
2022-09-25T07:21:27.759Z,40.30
2022-09-25T07:23:58.964Z,39.70
2022-09-25T07:26:29.876Z,39.65
2022-09-25T07:29:00.920Z,43.03
2022-09-25T07:31:31.892Z,39.63
2022-09-25T07:34:02.920Z,41.78
2022-09-25T07:36:33.392Z,36.75
2022-09-25T07:39:02.095Z,40.55
2022-09-25T07:41:30.406Z,37.90
2022-09-25T07:46:49.097Z,35.83
2022-09-25T07:49:18.387Z,34.63
2022-09-25T07:51:48.535Z,37.15
2022-09-25T07:54:16.836Z,34.45
2022-09-25T07:56:47.087Z,36.03
2022-09-25T07:59:15.760Z,34.90
2022-09-25T08:01:47.285Z,39.65
2022-09-25T08:04:19.943Z,36.28
2022-09-25T08:06:50.225Z,34.75
2022-09-25T08:09:18.553Z,35.85
2022-09-25T08:11:47.832Z,33.10
2022-09-25T08:14:16.447Z,36.97
2022-09-25T08:16:48.067Z,35.38
2022-09-25T08:19:18.392Z,39.30
2022-09-25T08:21:47.315Z,32.47
2022-09-25T08:24:17.379Z,33.75
2022-09-25T08:26:47.461Z,29.88
2022-09-25T08:29:16.367Z,34.88
2022-09-25T08:31:44.770Z,32.97
2022-09-25T08:34:39.621Z,35.75
2022-09-25T08:37:04.644Z,33.33
2022-09-25T08:39:34.257Z,32.40
2022-09-25T08:42:04.264Z,34.35
2022-09-25T08:44:38.329Z,31.35
2022-09-25T08:47:31.942Z,34.97
2022-09-25T08:50:05.614Z,32.70
2022-09-25T08:52:36.378Z,30.90
2022-09-25T08:55:13.939Z,33.10
2022-09-25T08:58:05.578Z,30.33
2022-09-25T09:00:34.089Z,30.92
2022-09-25T09:03:02.862Z,30.38
2022-09-25T09:05:35.151Z,30.67
2022-09-25T09:08:06.764Z,27.58
2022-09-25T09:10:42.194Z,28.85
2022-09-25T09:13:19.645Z,27.50
2022-09-25T09:15:54.356Z,26.88
2022-09-25T09:18:25.076Z,28.75
2022-09-25T09:20:57.777Z,28.60
2022-09-25T09:23:34.239Z,27.45
2022-09-25T09:26:07.274Z,25.35
2022-09-25T09:28:57.083Z,25.88
2022-09-25T09:31:32.037Z,27.35
2022-09-25T09:34:17.007Z,29.13
2022-09-25T09:36:52.935Z,25.17
2022-09-25T09:39:28.375Z,25.02
2022-09-25T09:42:06.797Z,29.65
2022-09-25T09:44:51.313Z,28.27
2022-09-25T09:47:40.390Z,28.55
2022-09-25T09:50:41.815Z,28.20
2022-09-25T09:53:21.060Z,27.23
2022-09-25T09:55:54.271Z,28.00
2022-09-25T09:58:29.784Z,27.88
2022-09-25T10:01:15.955Z,26.52
2022-09-25T10:03:57.117Z,28.27
2022-09-25T10:06:31.323Z,27.40
2022-09-25T10:09:00.382Z,27.83
2022-09-25T10:11:32.659Z,27.85
2022-09-25T10:14:05.846Z,27.65
2022-09-25T10:16:35.229Z,28.75
2022-09-25T10:19:08.195Z,27.33
2022-09-25T10:21:42.811Z,25.70
2022-09-25T10:24:11.778Z,26.02
2022-09-25T10:26:41.569Z,25.52
2022-09-25T10:29:28.459Z,24.10
2022-09-25T10:32:01.360Z,18.98
2022-09-25T10:34:31.273Z,24.48
2022-09-25T10:37:22.281Z,25.48
2022-09-25T10:40:03.135Z,24.58
2022-09-25T10:42:37.651Z,23.95
2022-09-25T10:45:31.282Z,22.60
2022-09-25T10:48:17.899Z,22.40
2022-09-25T10:50:47.944Z,20.90
2022-09-25T10:53:34.194Z,22.55
2022-09-25T10:56:06.260Z,22.10
2022-09-25T10:58:41.285Z,24.75
2022-09-25T11:01:13.442Z,21.52
2022-09-25T11:03:49.358Z,19.35
2022-09-25T11:06:21.984Z,20.05
2022-09-25T11:09:04.529Z,18.95
2022-09-25T11:11:34.391Z,18.65
2022-09-25T11:14:06.402Z,17.25
2022-09-25T11:16:51.580Z,17.60
2022-09-25T11:19:26.921Z,16.10
2022-09-25T11:22:02.752Z,16.52
2022-09-25T11:24:43.298Z,17.50
2022-09-25T11:27:15.828Z,17.52
2022-09-25T11:29:54.960Z,16.92
2022-09-25T11:32:32.750Z,16.42
2022-09-25T11:35:26.553Z,17.25
2022-09-25T11:38:05.205Z,15.25
2022-09-25T11:40:58.486Z,14.95
2022-09-25T11:43:39.704Z,14.13
2022-09-25T11:46:24.214Z,13.65
2022-09-25T11:49:11.392Z,12.95
2022-09-25T11:52:06.094Z,12.95
2022-09-25T11:54:49.316Z,13.10
2022-09-25T11:57:22.983Z,12.18
2022-09-25T12:00:06.556Z,13.30
2022-09-25T12:02:50.305Z,12.75
2022-09-25T12:05:34.339Z,12.98
2022-09-25T12:08:22.456Z,11.60
2022-09-25T12:10:58.643Z,10.13
2022-09-25T12:13:42.243Z,12.02
2022-09-25T12:16:19.651Z,12.07
2022-09-25T12:19:26.528Z,10.70
2022-09-25T12:22:03.226Z,11.02
2022-09-25T12:24:44.628Z,11.65
2022-09-25T12:27:21.504Z,12.32
2022-09-25T12:30:06.811Z,13.00
2022-09-25T12:32:54.678Z,10.80
2022-09-25T12:35:36.227Z,10.93
2022-09-25T12:38:14.102Z,9.73
2022-09-25T12:40:47.353Z,11.07
2022-09-25T12:43:24.483Z,11.63
2022-09-25T12:46:00.235Z,11.57
2022-09-25T12:48:37.837Z,10.48
2022-09-25T12:51:13.135Z,10.25
2022-09-25T12:53:49.009Z,8.23
2022-09-25T12:56:24.244Z,6.50
2022-09-25T12:59:03.714Z,6.95
2022-09-25T13:01:41.545Z,8.30
2022-09-25T13:04:24.231Z,8.00
2022-09-25T13:06:59.713Z,8.00
2022-09-25T13:09:36.748Z,8.15
2022-09-25T13:12:09.715Z,9.02
2022-09-25T13:14:45.922Z,8.07
2022-09-25T13:17:15.910Z,7.55
2022-09-25T13:19:46.863Z,7.22
2022-09-25T13:22:21.245Z,7.22
2022-09-25T13:24:57.651Z,10.25
2022-09-25T13:27:34.040Z,9.27
2022-09-25T13:30:06.681Z,9.02
2022-09-25T13:32:38.683Z,8.68
2022-09-25T13:35:23.012Z,9.00
2022-09-25T13:37:54.963Z,9.35
2022-09-25T13:40:43.898Z,9.20
2022-09-25T13:43:22.081Z,8.93
2022-09-25T13:46:24.571Z,8.57
2022-09-25T13:48:56.024Z,9.73
2022-09-25T13:51:34.932Z,10.23
2022-09-25T13:54:23.796Z,11.25
2022-09-25T13:56:54.230Z,10.48
2022-09-25T13:59:37.594Z,11.02
2022-09-25T14:02:38.464Z,9.65
2022-09-25T14:05:07.520Z,9.95
2022-09-25T14:07:37.225Z,10.38
2022-09-25T14:10:12.907Z,9.30
2022-09-25T14:12:48.362Z,9.55
2022-09-25T14:15:25.456Z,10.05
2022-09-25T14:17:56.426Z,10.65
2022-09-25T14:20:35.793Z,9.55
2022-09-25T14:23:07.991Z,8.45
2022-09-25T14:25:43.091Z,8.80
2022-09-25T14:28:23.041Z,8.80
2022-09-25T14:31:19.344Z,9.05
2022-09-25T14:34:13.819Z,10.20
2022-09-25T14:36:54.502Z,9.80
2022-09-25T14:39:30.279Z,9.52
2022-09-25T14:42:21.732Z,9.30
2022-09-25T14:45:15.484Z,9.15
2022-09-25T14:47:49.111Z,7.30
2022-09-25T14:50:22.641Z,7.70
2022-09-25T14:52:55.049Z,7.40
2022-09-25T14:55:25.223Z,7.05
2022-09-25T14:57:54.437Z,7.15
2022-09-25T15:00:26.040Z,7.45
2022-09-25T15:02:56.316Z,7.65
2022-09-25T15:05:35.584Z,8.35
2022-09-25T15:08:20.510Z,7.80
2022-09-25T15:10:49.335Z,8.02
2022-09-25T15:13:20.321Z,7.88
2022-09-25T15:16:12.597Z,8.00
2022-09-25T15:18:43.300Z,7.20
2022-09-25T15:21:26.770Z,7.70
2022-09-25T15:23:58.128Z,8.50
2022-09-25T15:26:28.558Z,8.80
2022-09-25T15:28:57.109Z,8.77
2022-09-25T15:31:27.715Z,8.52
2022-09-25T15:34:04.798Z,9.43
2022-09-25T15:36:35.231Z,8.38
2022-09-25T15:39:14.757Z,8.30
2022-09-25T15:41:44.007Z,9.40
2022-09-25T15:44:15.402Z,9.13
2022-09-25T15:47:08.534Z,8.55
2022-09-25T15:49:44.079Z,8.02
2022-09-25T15:52:20.686Z,7.80
2022-09-25T15:54:49.447Z,7.03
2022-09-25T15:57:26.530Z,6.82
2022-09-25T16:00:13.647Z,6.18
2022-09-25T16:03:08.110Z,6.43
2022-09-25T16:05:38.532Z,6.43
2022-09-25T16:08:29.599Z,6.50
2022-09-25T16:11:08.374Z,5.97
2022-09-25T16:13:40.975Z,6.63
2022-09-25T16:16:19.598Z,5.97
2022-09-25T16:18:51.122Z,6.22
2022-09-25T16:21:23.853Z,6.22
2022-09-25T16:23:56.135Z,6.90
2022-09-25T16:26:32.735Z,7.93
2022-09-25T16:29:05.928Z,7.97
2022-09-25T16:31:36.725Z,7.65
2022-09-25T16:34:11.049Z,7.70
2022-09-25T16:36:43.754Z,8.05
2022-09-25T16:39:37.464Z,7.97
2022-09-25T16:42:30.776Z,7.90
2022-09-25T16:45:15.239Z,7.65
2022-09-25T16:47:49.268Z,8.32
2022-09-25T16:50:21.728Z,8.48
2022-09-25T16:52:50.885Z,10.07
2022-09-25T16:55:22.964Z,11.27
2022-09-25T16:57:54.163Z,9.93
2022-09-25T17:00:26.013Z,10.95
2022-09-25T17:02:55.347Z,8.70
2022-09-25T17:05:27.620Z,8.73
2022-09-25T17:10:51.070Z,8.80
2022-09-25T17:16:17.707Z,11.07
2022-09-25T17:18:46.835Z,9.35
2022-09-25T17:21:19.638Z,9.75
2022-09-25T17:23:48.688Z,10.68
2022-09-25T17:26:20.483Z,13.38
2022-09-25T17:28:49.986Z,11.65
2022-09-25T17:31:21.218Z,9.30
2022-09-25T17:33:52.361Z,8.73
2022-09-25T17:36:22.158Z,8.82
2022-09-25T17:38:51.462Z,9.52
2022-09-25T17:41:23.005Z,9.43
2022-09-25T17:43:52.630Z,10.15
2022-09-25T17:46:22.697Z,9.77
2022-09-25T17:48:54.468Z,9.75
2022-09-25T17:51:27.697Z,9.18
2022-09-25T17:53:56.927Z,10.25
2022-09-25T17:56:28.546Z,8.50
2022-09-25T17:58:57.755Z,9.43
2022-09-25T18:01:33.195Z,10.10
2022-09-25T18:04:19.030Z,11.05
2022-09-25T18:06:48.732Z,10.40
2022-09-25T18:09:17.127Z,9.10
2022-09-25T18:11:46.530Z,10.85
2022-09-25T18:14:17.650Z,22.02
2022-09-25T18:16:46.792Z,36.58
2022-09-25T18:19:35.196Z,34.00
2022-09-25T18:22:25.220Z,20.13
2022-09-25T18:24:57.007Z,14.05
2022-09-25T18:27:27.554Z,11.25
2022-09-25T18:29:56.879Z,11.45
2022-09-25T18:32:26.087Z,12.95
2022-09-25T18:34:54.395Z,11.43
2022-09-25T18:37:25.410Z,9.80
2022-09-25T18:39:53.681Z,9.27
2022-09-25T18:42:23.790Z,9.68
2022-09-25T18:44:53.199Z,9.40
2022-09-25T18:47:22.707Z,9.93
2022-09-25T18:49:51.631Z,9.20
2022-09-25T18:52:21.672Z,9.32
2022-09-25T18:54:51.311Z,11.13
2022-09-25T18:57:22.201Z,14.65
2022-09-25T18:59:51.022Z,13.73
2022-09-25T19:02:21.283Z,12.93
2022-09-25T19:04:52.578Z,9.95
2022-09-25T19:07:20.870Z,10.30
2022-09-25T19:09:53.315Z,9.27
2022-09-25T19:12:22.470Z,10.18
2022-09-25T19:14:51.154Z,10.05
2022-09-25T19:17:20.555Z,10.32
2022-09-25T19:19:49.115Z,12.18
2022-09-25T19:22:21.008Z,10.13
2022-09-25T19:24:50.651Z,9.88
2022-09-25T19:27:21.766Z,10.50
2022-09-25T19:29:50.515Z,9.80
2022-09-25T19:32:21.906Z,11.23
2022-09-25T19:34:52.438Z,10.68
2022-09-25T19:37:24.024Z,11.90
2022-09-25T19:40:10.779Z,12.55
2022-09-25T19:42:40.877Z,12.35
2022-09-25T19:45:10.913Z,12.98
2022-09-25T19:47:39.217Z,9.45
2022-09-25T19:50:08.828Z,9.77
2022-09-25T19:52:38.276Z,12.75
2022-09-25T19:55:07.836Z,12.02
2022-09-25T19:57:36.767Z,10.75
2022-09-25T20:00:09.362Z,11.07
2022-09-25T20:02:39.437Z,9.88
2022-09-25T20:05:10.413Z,9.70
2022-09-25T20:07:40.591Z,9.38
2022-09-25T20:10:10.123Z,9.25
2022-09-25T20:12:38.568Z,8.93
2022-09-25T20:18:22.187Z,8.63
2022-09-25T20:20:50.510Z,7.82
2022-09-25T20:23:22.798Z,8.85
2022-09-25T20:25:51.704Z,8.75
2022-09-25T20:28:20.059Z,9.50
2022-09-25T20:30:50.155Z,10.07
2022-09-25T20:33:18.546Z,12.27
2022-09-25T20:35:47.473Z,10.40
2022-09-25T20:38:15.830Z,9.95
2022-09-25T20:40:44.665Z,10.85
2022-09-25T20:43:13.279Z,10.40
2022-09-25T20:45:41.573Z,10.02
2022-09-25T20:48:11.897Z,10.45
2022-09-25T20:50:40.230Z,9.00
2022-09-25T20:53:08.974Z,9.57
2022-09-25T20:55:40.286Z,10.40
2022-09-25T20:58:08.971Z,9.65
2022-09-25T21:00:37.810Z,10.30
2022-09-25T21:03:06.267Z,10.43
2022-09-25T21:05:39.804Z,10.07
2022-09-25T21:08:08.980Z,9.43
2022-09-25T21:10:40.305Z,9.40
2022-09-25T21:13:09.375Z,8.98
2022-09-25T21:15:37.675Z,9.50
2022-09-25T21:18:07.449Z,8.90
2022-09-25T21:20:36.641Z,8.68
2022-09-25T21:23:06.666Z,8.68
2022-09-25T21:25:35.391Z,8.93
2022-09-25T21:28:04.410Z,8.60
2022-09-25T21:30:33.807Z,8.75
2022-09-25T21:33:02.171Z,9.27
2022-09-25T21:35:31.720Z,10.07
2022-09-25T21:38:00.045Z,9.93
2022-09-25T21:40:30.482Z,9.80
2022-09-25T21:42:58.850Z,9.70
2022-09-25T21:45:27.519Z,9.23
2022-09-25T21:47:56.695Z,9.80
2022-09-25T21:50:25.123Z,8.65
2022-09-25T21:52:55.327Z,9.45
2022-09-25T21:55:24.374Z,8.98
2022-09-25T21:57:54.068Z,9.65
2022-09-25T22:00:22.982Z,10.32
2022-09-25T22:02:51.760Z,9.55
2022-09-25T22:05:21.917Z,9.30
2022-09-25T22:07:50.580Z,9.00
2022-09-25T22:10:19.323Z,9.55
2022-09-25T22:12:47.623Z,9.70
2022-09-25T22:15:18.414Z,8.68
2022-09-25T22:17:47.220Z,9.25
2022-09-25T22:20:16.058Z,9.02
2022-09-25T22:22:44.616Z,9.15
2022-09-25T22:25:13.351Z,10.13
2022-09-25T22:27:42.040Z,9.32
2022-09-25T22:30:11.959Z,9.55
2022-09-25T22:32:42.334Z,9.18
2022-09-25T22:35:10.642Z,9.07
2022-09-25T22:37:39.750Z,9.43
2022-09-25T22:40:08.909Z,9.40
2022-09-25T22:42:38.004Z,10.30
2022-09-25T22:45:07.024Z,9.73
2022-09-25T22:47:36.395Z,10.40
2022-09-25T22:50:07.302Z,10.30
2022-09-25T22:52:36.506Z,9.30
2022-09-25T22:55:05.245Z,9.25
2022-09-25T22:57:39.227Z,9.85
2022-09-25T23:00:09.853Z,8.68
2022-09-25T23:02:38.555Z,9.38
2022-09-25T23:05:09.628Z,9.52
2022-09-25T23:07:38.021Z,9.00
2022-09-25T23:10:08.328Z,9.20
2022-09-25T23:12:37.212Z,9.40
2022-09-25T23:15:06.652Z,9.90
2022-09-25T23:17:34.967Z,9.43
2022-09-25T23:20:04.137Z,9.55
2022-09-25T23:22:34.292Z,9.10
2022-09-25T23:25:02.606Z,9.65
2022-09-25T23:27:31.801Z,9.38
2022-09-25T23:30:00.221Z,9.20
2022-09-25T23:32:29.543Z,9.13
2022-09-25T23:34:57.858Z,8.65
2022-09-25T23:37:26.905Z,8.70
2022-09-25T23:39:57.162Z,10.02
2022-09-25T23:42:25.521Z,9.65
2022-09-25T23:44:54.583Z,9.40
2022-09-25T23:47:24.055Z,9.23
2022-09-25T23:49:53.049Z,9.25
2022-09-25T23:52:21.357Z,10.07
2022-09-25T23:54:50.567Z,9.13
2022-09-25T23:57:20.255Z,9.73
2022-09-25T23:59:49.557Z,10.15
